createdAt,value
2018-08-10T00:00:33.190Z,100089.66
2018-08-10T00:03:36.506Z,100101.25
2018-08-10T00:06:39.519Z,100108.72
2018-08-10T00:09:42.655Z,100126.58
2018-08-10T00:12:45.785Z,100124.81
2018-08-10T00:15:48.961Z,100136.88
2018-08-10T00:18:52.082Z,100144.09
2018-08-10T00:21:55.220Z,100148.56
2018-08-10T00:24:58.424Z,100163.00
2018-08-10T00:28:01.723Z,100161.72
2018-08-10T00:31:04.982Z,100179.84
2018-08-10T00:34:08.201Z,100175.11
2018-08-10T00:37:11.341Z,100183.17
2018-08-10T00:40:17.798Z,100198.38
2018-08-10T00:43:20.964Z,100204.47
2018-08-10T00:46:24.102Z,100216.86
2018-08-10T00:49:27.218Z,100220.94
2018-08-10T00:52:30.406Z,100219.06
2018-08-10T00:55:33.722Z,100234.69
2018-08-10T00:58:36.975Z,100241.03
2018-08-10T01:01:40.135Z,100234.98
2018-08-10T01:04:43.323Z,100248.09
2018-08-10T01:07:46.474Z,100254.33
2018-08-10T01:10:49.665Z,100253.94
2018-08-10T01:13:52.754Z,100255.04
2018-08-10T01:16:55.876Z,100269.11
2018-08-10T01:19:59.096Z,100275.50
2018-08-10T01:23:07.134Z,100272.85
2018-08-10T01:26:10.259Z,100271.15
2018-08-10T01:29:13.425Z,100271.91
2018-08-10T01:32:16.530Z,100283.08
2018-08-10T01:35:19.693Z,100285.35
2018-08-10T01:38:22.991Z,100287.86
2018-08-10T01:41:26.097Z,100297.11
2018-08-10T01:44:29.230Z,100293.99
2018-08-10T01:47:32.338Z,100309.47
2018-08-10T01:50:35.465Z,100303.88
2018-08-10T01:53:38.614Z,100311.00
2018-08-10T01:56:41.794Z,100325.31
2018-08-10T01:59:44.851Z,100315.78
2018-08-10T02:02:48.055Z,100327.87
2018-08-10T02:05:51.110Z,100320.38
2018-08-10T02:08:54.244Z,100320.06
2018-08-10T02:11:57.277Z,100323.80
2018-08-10T02:15:00.492Z,100326.36
2018-08-10T02:18:03.838Z,100331.83
2018-08-10T02:21:07.223Z,100334.96
2018-08-10T02:24:10.346Z,100333.33
2018-08-10T02:27:14.079Z,100339.36
2018-08-10T02:30:18.555Z,100328.15
2018-08-10T02:33:21.803Z,100327.27
2018-08-10T02:36:24.803Z,100333.60
2018-08-10T02:39:27.954Z,100337.34
2018-08-10T02:42:37.168Z,100336.34
2018-08-10T02:46:01.147Z,100342.75
2018-08-10T02:49:05.995Z,100360.90
2018-08-10T02:52:09.382Z,100346.83
2018-08-10T02:55:13.135Z,100376.20
2018-08-10T02:58:16.250Z,100384.48
2018-08-10T03:01:19.367Z,100389.54
2018-08-10T03:04:22.569Z,100380.16
2018-08-10T03:07:25.745Z,100407.06
2018-08-10T03:10:28.882Z,100400.89
2018-08-10T03:13:32.011Z,100408.88
2018-08-10T03:16:35.280Z,100407.29
2018-08-10T03:19:38.443Z,100407.53
2018-08-10T03:22:41.626Z,100415.92
2018-08-10T03:25:44.763Z,100424.04
2018-08-10T03:28:47.955Z,100426.00
2018-08-10T03:31:51.104Z,100421.95
2018-08-10T03:34:54.198Z,100431.93
2018-08-10T03:37:57.290Z,100433.42
2018-08-10T03:41:00.579Z,100435.95
2018-08-10T03:44:03.771Z,100438.95
2018-08-10T03:47:06.874Z,100437.00
2018-08-10T03:50:12.615Z,100440.97
2018-08-10T03:53:15.770Z,100447.61
2018-08-10T03:56:18.859Z,100447.61
2018-08-10T03:59:21.950Z,100446.87
2018-08-10T04:02:25.166Z,100460.08
2018-08-10T04:05:28.389Z,100467.83
2018-08-10T04:08:31.482Z,100464.44
2018-08-10T04:11:34.645Z,100466.96
2018-08-10T04:14:37.879Z,100473.26
2018-08-10T04:17:41.249Z,100462.36
2018-08-10T04:20:44.390Z,100472.01
2018-08-10T04:23:47.542Z,100475.81
2018-08-10T04:26:50.642Z,100471.77
2018-08-10T04:29:53.814Z,100482.30
2018-08-10T04:32:57.021Z,100479.62
2018-08-10T04:36:01.392Z,100483.38
2018-08-10T04:39:09.603Z,100493.40
2018-08-10T04:42:12.734Z,100502.75
2018-08-10T04:45:16.000Z,100498.94
2018-08-10T04:48:19.199Z,100497.41
2018-08-10T04:51:22.210Z,100500.81
2018-08-10T04:54:25.343Z,100508.70
2018-08-10T04:57:28.513Z,100509.19
2018-08-10T05:00:31.656Z,100512.92
2018-08-10T05:03:34.897Z,100515.63
2018-08-10T05:06:38.009Z,100525.63
2018-08-10T05:09:41.105Z,100520.80
2018-08-10T05:12:45.386Z,100532.98
2018-08-10T05:15:49.144Z,100528.80
2018-08-10T05:18:52.346Z,100531.63
2018-08-10T05:21:56.811Z,100535.75
2018-08-10T05:25:01.188Z,100541.98
2018-08-10T05:28:06.997Z,100543.13
2018-08-10T05:31:12.841Z,100546.30
2018-08-10T05:34:17.819Z,100551.67
2018-08-10T05:37:21.323Z,100553.36
2018-08-10T05:40:25.543Z,100560.11
2018-08-10T05:43:29.513Z,100561.41
2018-08-10T05:46:32.687Z,100563.11
2018-08-10T05:49:36.656Z,100563.59
2018-08-10T05:52:41.538Z,100565.77
2018-08-10T05:55:46.549Z,100567.96
2018-08-10T05:58:49.726Z,100570.77
2018-08-10T06:01:52.958Z,100574.57
2018-08-10T06:04:56.834Z,100582.44
2018-08-10T06:07:59.944Z,100585.89
2018-08-10T06:11:09.911Z,100590.95
2018-08-10T06:14:13.904Z,100586.44
2018-08-10T06:17:16.836Z,100591.63
2018-08-10T06:20:19.802Z,100590.58
2018-08-10T06:23:22.883Z,100590.39
2018-08-10T06:26:25.879Z,100591.92
2018-08-10T06:29:29.039Z,100589.24
2018-08-10T06:32:32.099Z,100596.59
2018-08-10T06:35:35.085Z,100597.56
2018-08-10T06:38:38.126Z,100595.16
2018-08-10T06:41:41.197Z,100599.36
2018-08-10T06:44:44.202Z,100604.52
2018-08-10T06:47:47.112Z,100607.16
2018-08-10T06:50:50.054Z,100609.32
2018-08-10T06:53:53.008Z,100613.28
2018-08-10T06:56:55.993Z,100616.48
2018-08-10T06:59:59.081Z,100609.32
2018-08-10T07:03:05.294Z,100611.31
2018-08-10T07:06:08.388Z,100619.42
2018-08-10T07:09:12.537Z,100618.97
2018-08-10T07:12:15.638Z,100596.05
2018-08-10T07:15:18.703Z,100623.56
2018-08-10T07:18:22.147Z,100628.34
2018-08-10T07:21:25.187Z,100634.98
2018-08-10T07:24:28.106Z,100638.20
2018-08-10T07:27:31.227Z,100645.16
2018-08-10T07:30:34.412Z,100637.63
2018-08-10T07:33:37.349Z,100640.96
2018-08-10T07:36:40.289Z,100633.64
2018-08-10T07:39:43.476Z,100646.57
2018-08-10T07:42:46.491Z,100651.83
2018-08-10T07:45:49.496Z,100651.91
2018-08-10T07:48:52.659Z,100663.48
2018-08-10T07:51:55.741Z,100667.33
2018-08-10T07:54:58.825Z,100668.05
2018-08-10T07:58:01.879Z,100666.19
2018-08-10T08:01:04.963Z,100664.70
2018-08-10T08:04:08.638Z,100664.16
2018-08-10T08:07:11.705Z,100665.42
2018-08-10T08:10:14.723Z,100671.55
2018-08-10T08:13:17.655Z,100670.73
2018-08-10T08:16:20.619Z,100677.52
2018-08-10T08:19:23.655Z,100669.94
2018-08-10T08:22:26.646Z,100681.78
2018-08-10T08:25:29.790Z,100674.97
2018-08-10T08:28:33.230Z,100674.09
2018-08-10T08:31:36.264Z,100671.10
2018-08-10T08:34:39.569Z,100678.26
2018-08-10T08:37:42.536Z,100684.17
2018-08-10T08:40:48.102Z,100677.99
2018-08-10T08:44:34.966Z,100682.16
2018-08-10T08:47:38.190Z,100676.69
2018-08-10T08:50:42.566Z,100676.08
2018-08-10T08:53:45.599Z,100662.23
2018-08-10T08:56:51.621Z,100664.23
2018-08-10T08:59:54.589Z,100667.37
2018-08-10T09:02:57.650Z,100667.13
2018-08-10T09:06:01.627Z,100670.55
2018-08-10T09:09:40.264Z,100665.02
2018-08-10T09:12:43.246Z,100660.00
2018-08-10T09:15:46.164Z,100663.53
2018-08-10T09:18:49.357Z,100675.38
2018-08-10T09:21:52.298Z,100668.22
2018-08-10T09:24:55.302Z,100665.55
2018-08-10T09:27:58.352Z,100658.14
2018-08-10T09:31:01.335Z,100654.80
2018-08-10T09:34:04.306Z,100661.39
2018-08-10T09:37:08.469Z,100660.31
2018-08-10T09:40:17.196Z,100664.64
2018-08-10T09:43:20.195Z,100664.19
2018-08-10T09:46:23.210Z,100673.34
2018-08-10T09:49:33.931Z,100665.70
2018-08-10T09:52:39.987Z,100674.36
2018-08-10T09:55:42.941Z,100682.13
2018-08-10T09:58:45.951Z,100680.97
2018-08-10T10:01:54.804Z,100673.01
2018-08-10T10:04:57.787Z,100676.06
2018-08-10T10:08:01.181Z,100675.38
2018-08-10T10:11:04.334Z,100681.07
2018-08-10T10:14:08.238Z,100686.97
2018-08-10T10:17:11.310Z,100695.26
2018-08-10T10:20:14.636Z,100680.66
2018-08-10T10:23:17.718Z,100678.13
2018-08-10T10:26:20.811Z,100674.55
2018-08-10T10:29:23.919Z,100664.31
2018-08-10T10:32:27.140Z,100657.73
2018-08-10T10:35:30.345Z,100674.14
2018-08-10T10:38:33.416Z,100682.53
2018-08-10T10:41:36.572Z,100679.15
2018-08-10T10:44:39.614Z,100683.68
2018-08-10T10:47:43.822Z,100681.84
2018-08-10T10:50:47.034Z,100677.30
2018-08-10T10:53:50.110Z,100675.92
2018-08-10T10:56:53.294Z,100663.74
2018-08-10T10:59:57.052Z,100659.77
2018-08-10T11:03:00.165Z,100657.27
2018-08-10T11:06:10.180Z,100657.09
2018-08-10T11:09:13.279Z,100655.20
2018-08-10T11:12:16.514Z,100669.39
2018-08-10T11:15:19.598Z,100658.52
2018-08-10T11:18:22.757Z,100665.81
2018-08-10T11:21:25.906Z,100657.63
2018-08-10T11:24:28.986Z,100674.78
2018-08-10T11:27:32.205Z,100661.31
2018-08-10T11:30:35.389Z,100657.95
2018-08-10T11:33:38.523Z,100660.05
2018-08-10T11:36:41.729Z,100655.03
2018-08-10T11:39:44.780Z,100645.57
2018-08-10T11:42:49.897Z,100630.44
2018-08-10T11:45:53.556Z,100643.58
2018-08-10T11:48:57.385Z,100644.59
2018-08-10T11:52:00.856Z,100639.70
2018-08-10T11:55:04.599Z,100663.13
2018-08-10T11:58:14.381Z,100646.84
2018-08-10T12:01:17.542Z,100649.48
2018-08-10T12:04:20.722Z,100644.97
2018-08-10T12:07:23.949Z,100642.87
2018-08-10T12:10:27.216Z,100646.68
2018-08-10T12:13:30.455Z,100637.67
2018-08-10T12:16:33.898Z,100654.08
2018-08-10T12:19:37.130Z,100652.64
2018-08-10T12:22:41.170Z,100646.55
2018-08-10T12:25:44.238Z,100652.38
2018-08-10T12:28:47.324Z,100653.51
2018-08-10T12:31:50.572Z,100653.38
2018-08-10T12:34:53.626Z,100649.98
2018-08-10T12:37:56.762Z,100622.81
2018-08-10T12:41:00.026Z,100648.53
2018-08-10T12:44:03.173Z,100611.53
2018-08-10T12:47:06.414Z,100640.06
2018-08-10T12:50:09.802Z,100641.55
2018-08-10T12:53:12.994Z,100644.42
2018-08-10T12:56:16.122Z,100647.97
2018-08-10T12:59:19.255Z,100646.84
2018-08-10T13:02:22.300Z,100646.36
2018-08-10T13:05:25.386Z,100651.86
2018-08-10T13:08:28.596Z,100655.34
2018-08-10T13:11:31.678Z,100652.91
2018-08-10T13:14:34.802Z,100651.20
2018-08-10T13:17:37.933Z,100638.02
2018-08-10T13:20:41.017Z,100635.39
2018-08-10T13:23:44.177Z,100629.11
2018-08-10T13:26:47.238Z,100628.73
2018-08-10T13:29:50.288Z,100544.11
2018-08-10T13:32:53.424Z,100638.56
2018-08-10T13:35:56.562Z,100644.41
2018-08-10T13:38:59.668Z,100639.50
2018-08-10T13:42:02.903Z,100597.95
2018-08-10T13:45:09.599Z,100615.41
2018-08-10T13:48:12.731Z,100609.31
2018-08-10T13:51:15.879Z,100607.69
2018-08-10T13:54:18.988Z,100523.65
2018-08-10T13:57:22.074Z,100568.23
2018-08-10T14:00:25.533Z,100601.89
2018-08-10T14:03:28.784Z,100619.34
2018-08-10T14:06:31.959Z,100603.56
2018-08-10T14:09:35.114Z,100596.13
2018-08-10T14:12:38.181Z,100599.41
2018-08-10T14:15:41.343Z,100595.33
2018-08-10T14:18:44.450Z,100596.42
2018-08-10T14:21:47.554Z,100596.54
2018-08-10T14:24:50.679Z,100594.55
2018-08-10T14:27:53.763Z,100578.94
2018-08-10T14:30:56.915Z,100585.64
2018-08-10T14:34:00.078Z,100588.80
2018-08-10T14:37:03.543Z,100591.09
2018-08-10T14:40:10.227Z,100578.97
2018-08-10T14:43:13.725Z,100592.38
2018-08-10T14:46:17.029Z,100578.32
2018-08-10T14:49:20.343Z,100574.06
2018-08-10T14:52:23.710Z,100584.34
2018-08-10T14:55:27.141Z,100576.80
2018-08-10T14:58:31.722Z,100548.91
2018-08-10T15:01:35.366Z,100577.27
2018-08-10T15:04:38.939Z,100574.86
2018-08-10T15:07:42.704Z,100571.65
2018-08-10T15:10:52.663Z,100575.42
2018-08-10T15:13:55.927Z,100565.22
2018-08-10T15:16:59.284Z,100556.23
2018-08-10T15:20:02.728Z,100565.41
2018-08-10T15:23:05.890Z,100569.34
2018-08-10T15:26:09.207Z,100560.50
2018-08-10T15:29:19.353Z,100556.11
2018-08-10T15:32:22.652Z,100553.14
2018-08-10T15:35:25.983Z,100550.52
2018-08-10T15:38:29.868Z,100541.79
2018-08-10T15:41:33.091Z,100551.31
2018-08-10T15:44:36.480Z,100546.04
2018-08-10T15:47:40.076Z,100546.94
2018-08-10T15:50:43.535Z,100550.86
2018-08-10T15:53:46.802Z,100548.51
2018-08-10T15:57:59.988Z,100545.80
2018-08-10T16:01:03.621Z,100544.02
2018-08-10T16:04:07.366Z,100482.96
2018-08-10T16:07:10.698Z,100533.45
2018-08-10T16:10:14.062Z,100536.06
2018-08-10T16:13:17.439Z,100533.14
2018-08-10T16:16:20.823Z,100535.45
2018-08-10T16:19:24.612Z,100535.68
2018-08-10T16:22:27.872Z,100529.98
2018-08-10T16:25:31.381Z,100532.91
2018-08-10T16:28:34.838Z,100531.86
2018-08-10T16:31:38.179Z,100529.87
2018-08-10T16:34:41.596Z,100528.61
2018-08-10T16:37:46.188Z,100521.09
2018-08-10T16:40:49.304Z,100525.91
2018-08-10T16:43:52.584Z,100526.95
2018-08-10T16:46:55.765Z,100518.64
2018-08-10T16:49:59.236Z,100515.42
2018-08-10T16:53:02.543Z,100516.55
2018-08-10T16:56:06.084Z,100519.59
2018-08-10T16:59:11.682Z,100520.51
2018-08-10T17:02:15.100Z,100515.05
2018-08-10T17:05:18.752Z,100508.59
2018-08-10T17:08:22.374Z,100509.97
2018-08-10T17:11:25.780Z,100509.47
2018-08-10T17:14:29.281Z,100499.05
2018-08-10T17:17:32.775Z,100506.06
2018-08-10T17:20:36.154Z,100506.69
2018-08-10T17:23:40.169Z,100500.26
2018-08-10T17:26:43.571Z,100506.21
2018-08-10T17:29:46.854Z,100495.89
2018-08-10T17:32:50.061Z,100493.16
2018-08-10T17:36:00.304Z,100501.81
2018-08-10T17:39:08.346Z,100498.38
2018-08-10T17:42:11.613Z,100497.52
2018-08-10T17:45:16.390Z,100454.93
2018-08-10T17:48:20.000Z,100485.46
2018-08-10T17:51:30.025Z,100490.67
2018-08-10T17:54:33.411Z,100493.69
2018-08-10T17:57:36.900Z,100497.83
2018-08-10T18:00:40.216Z,100494.56
2018-08-10T18:03:43.689Z,100495.27
2018-08-10T18:06:47.863Z,100495.62
2018-08-10T18:09:51.291Z,100496.98
2018-08-10T18:12:54.761Z,100494.83
2018-08-10T18:15:58.180Z,100501.56
2018-08-10T18:19:01.644Z,100500.03
2018-08-10T18:22:05.243Z,100505.27
2018-08-10T18:25:11.067Z,100499.30
2018-08-10T18:28:14.886Z,100502.77
2018-08-10T18:31:19.202Z,100500.69
2018-08-10T18:34:23.473Z,100495.16
2018-08-10T18:37:26.935Z,100501.64
2018-08-10T18:40:30.416Z,100496.81
2018-08-10T18:43:33.763Z,100490.85
2018-08-10T18:46:38.412Z,100489.42
2018-08-10T18:49:41.691Z,100476.14
2018-08-10T18:52:45.261Z,100490.77
2018-08-10T18:55:48.720Z,100488.66
2018-08-10T18:58:52.763Z,100487.52
2018-08-10T19:01:56.006Z,100494.59
2018-08-10T19:04:59.409Z,100496.23
2018-08-10T19:08:02.567Z,100496.12
2018-08-10T19:11:06.093Z,100500.05
2018-08-10T19:14:09.743Z,100497.25
2018-08-10T19:17:13.010Z,100502.07
2018-08-10T19:20:16.467Z,100499.00
2018-08-10T19:23:19.740Z,100504.85
2018-08-10T19:26:23.264Z,100509.59
2018-08-10T19:29:26.401Z,100502.91
2018-08-10T19:32:29.619Z,100508.93
2018-08-10T19:35:32.741Z,100507.47
2018-08-10T19:38:36.170Z,100506.22
2018-08-10T19:41:39.591Z,100508.70
2018-08-10T19:44:43.232Z,100514.73
2018-08-10T19:47:46.526Z,100517.17
2018-08-10T19:50:49.732Z,100514.33
2018-08-10T19:53:53.155Z,100511.23
2018-08-10T19:56:56.567Z,100497.45
2018-08-10T19:59:59.857Z,100514.05
2018-08-10T20:03:03.911Z,100512.66
2018-08-10T20:06:07.351Z,100517.06
2018-08-10T20:09:12.564Z,100509.59
2018-08-10T20:12:16.104Z,100509.31
2018-08-10T20:15:19.487Z,100509.39
2018-08-10T20:18:22.874Z,100503.20
2018-08-10T20:21:26.205Z,100506.14
2018-08-10T20:24:29.491Z,100497.95
2018-08-10T20:27:33.466Z,100504.48
2018-08-10T20:30:36.953Z,100502.06
2018-08-10T20:33:45.666Z,100499.53
2018-08-10T20:36:50.554Z,100499.53
2018-08-10T20:39:53.981Z,100496.42
2018-08-10T20:42:57.501Z,100492.34
2018-08-10T20:46:01.111Z,100494.36
2018-08-10T20:49:05.189Z,100492.42
2018-08-10T20:52:08.797Z,100495.09
2018-08-10T20:55:12.271Z,100490.75
2018-08-10T20:58:16.139Z,100489.57
2018-08-10T21:01:19.490Z,100490.23
2018-08-10T21:04:22.769Z,100484.73
2018-08-10T21:07:25.774Z,100491.93
2018-08-10T21:10:28.825Z,100492.94
2018-08-10T21:13:31.922Z,100491.64
2018-08-10T21:16:34.962Z,100491.57
2018-08-10T21:20:00.689Z,100485.80
2018-08-10T21:23:05.589Z,100484.20
2018-08-10T21:26:10.519Z,100489.06
2018-08-10T21:29:14.733Z,100476.94
2018-08-10T21:32:18.257Z,100481.27
2018-08-10T21:35:23.440Z,100467.97
2018-08-10T21:38:26.476Z,100474.08
2018-08-10T21:41:29.590Z,100472.73
2018-08-10T21:44:32.720Z,100468.92
2018-08-10T21:47:36.411Z,100465.67
2018-08-10T21:50:39.641Z,100468.08
2018-08-10T21:53:42.733Z,100466.55
2018-08-10T21:56:45.820Z,100468.69
2018-08-10T21:59:48.969Z,100464.86
2018-08-10T22:02:52.113Z,100474.69
2018-08-10T22:05:56.120Z,100466.91
2018-08-10T22:08:59.534Z,100473.16
2018-08-10T22:12:02.640Z,100474.00
2018-08-10T22:15:12.322Z,100466.30
2018-08-10T22:18:21.161Z,100464.86
2018-08-10T22:21:24.190Z,100467.09
2018-08-10T22:24:27.267Z,100467.78
2018-08-10T22:27:30.320Z,100456.86
2018-08-10T22:30:33.477Z,100456.47
2018-08-10T22:33:36.566Z,100458.16
2018-08-10T22:36:39.880Z,100456.69
2018-08-10T22:39:42.934Z,100457.28
2018-08-10T22:42:46.072Z,100456.66
2018-08-10T22:45:49.164Z,100453.78
2018-08-10T22:48:52.326Z,100459.41
2018-08-10T22:51:55.443Z,100452.52
2018-08-10T22:54:58.572Z,100452.25
2018-08-10T22:58:01.681Z,100450.42
2018-08-10T23:01:04.966Z,100448.62
2018-08-10T23:04:08.258Z,100448.47
2018-08-10T23:07:11.503Z,100442.83
2018-08-10T23:10:15.157Z,100406.41
2018-08-10T23:13:18.425Z,100435.72
2018-08-10T23:16:21.545Z,100437.92
2018-08-10T23:19:24.583Z,100431.94
2018-08-10T23:22:27.696Z,100437.92
2018-08-10T23:25:30.993Z,100432.36
2018-08-10T23:28:34.103Z,100429.86
2018-08-10T23:31:37.214Z,100434.58
2018-08-10T23:34:40.314Z,100423.43
2018-08-10T23:37:43.345Z,100416.23
2018-08-10T23:40:46.499Z,100424.23
2018-08-10T23:43:49.658Z,100421.47
2018-08-10T23:46:52.727Z,100416.08
2018-08-10T23:49:55.915Z,100413.86
2018-08-10T23:52:59.040Z,100412.40
2018-08-10T23:56:02.137Z,100409.17
2018-08-10T23:59:05.184Z,100403.25
